createdAt,value
2018-05-29T00:00:11.583Z,10.83
2018-05-29T00:02:41.163Z,11.57
2018-05-29T00:05:10.209Z,12.70
2018-05-29T00:07:39.798Z,14.00
2018-05-29T00:10:08.710Z,13.60
2018-05-29T00:12:38.303Z,13.17
2018-05-29T00:15:07.183Z,15.57
2018-05-29T00:17:36.742Z,14.30
2018-05-29T00:20:05.607Z,15.20
2018-05-29T00:22:34.418Z,14.30
2018-05-29T00:25:03.340Z,15.60
2018-05-29T00:27:32.903Z,15.47
2018-05-29T00:30:01.837Z,15.83
2018-05-29T00:32:31.445Z,14.87
2018-05-29T00:35:00.272Z,16.47
2018-05-29T00:37:29.884Z,16.40
2018-05-29T00:39:59.454Z,16.73
2018-05-29T00:42:28.278Z,17.83
2018-05-29T00:44:57.104Z,21.23
2018-05-29T00:47:25.929Z,17.60
2018-05-29T00:50:07.749Z,18.37
2018-05-29T00:52:36.566Z,16.27
2018-05-29T00:55:23.123Z,18.40
2018-05-29T00:57:51.943Z,18.97
2018-05-29T01:00:20.765Z,18.43
2018-05-29T01:02:49.585Z,15.97
2018-05-29T01:05:18.514Z,16.10
2018-05-29T01:07:48.100Z,15.77
2018-05-29T01:10:17.712Z,17.60
2018-05-29T01:12:47.286Z,19.10
2018-05-29T01:15:16.084Z,17.83
2018-05-29T01:17:44.875Z,17.30
2018-05-29T01:20:13.715Z,18.13
2018-05-29T01:22:42.514Z,20.00
2018-05-29T01:25:12.087Z,18.13
2018-05-29T01:27:41.652Z,19.20
2018-05-29T01:30:10.464Z,19.80
2018-05-29T01:32:40.060Z,16.97
2018-05-29T01:35:09.629Z,17.37
2018-05-29T01:37:38.458Z,16.80
2018-05-29T01:40:08.023Z,19.40
2018-05-29T01:42:36.902Z,18.33
2018-05-29T01:45:06.500Z,17.53
2018-05-29T01:47:36.093Z,19.10
2018-05-29T01:50:05.028Z,19.53
2018-05-29T01:52:34.713Z,19.43
2018-05-29T01:55:03.518Z,21.27
2018-05-29T01:57:32.428Z,17.97
2018-05-29T02:00:02.144Z,17.97
2018-05-29T02:02:31.706Z,20.37
2018-05-29T02:05:00.526Z,17.83
2018-05-29T02:07:30.112Z,19.97
2018-05-29T02:09:58.906Z,19.83
2018-05-29T02:12:28.538Z,19.73
2018-05-29T02:14:57.432Z,23.67
2018-05-29T02:17:27.034Z,18.40
2018-05-29T02:20:05.634Z,19.23
2018-05-29T02:22:34.703Z,19.10
2018-05-29T02:25:03.498Z,18.67
2018-05-29T02:27:32.373Z,19.30
2018-05-29T02:30:01.981Z,20.13
2018-05-29T02:32:31.580Z,22.30
2018-05-29T02:35:01.180Z,18.20
2018-05-29T02:37:29.986Z,19.90
2018-05-29T02:39:58.876Z,21.00
2018-05-29T02:42:28.447Z,19.00
2018-05-29T02:44:57.315Z,20.77
2018-05-29T02:47:26.927Z,20.60
2018-05-29T02:50:05.710Z,21.43
2018-05-29T02:52:34.510Z,21.23
2018-05-29T02:55:03.329Z,19.07
2018-05-29T02:57:32.125Z,17.50
2018-05-29T03:00:01.022Z,19.57
2018-05-29T03:02:29.913Z,19.80
2018-05-29T03:04:58.723Z,21.57
2018-05-29T03:07:27.546Z,18.33
2018-05-29T03:09:57.263Z,18.13
2018-05-29T03:12:26.828Z,18.23
2018-05-29T03:14:55.658Z,21.03
2018-05-29T03:17:24.464Z,19.47
2018-05-29T03:19:53.266Z,21.67
2018-05-29T03:22:22.199Z,19.47
2018-05-29T03:24:51.003Z,20.37
2018-05-29T03:27:20.582Z,20.23
2018-05-29T03:29:49.476Z,21.67
2018-05-29T03:32:18.312Z,20.07
2018-05-29T03:34:47.117Z,23.17
2018-05-29T03:37:16.724Z,21.27
2018-05-29T03:39:46.309Z,19.83
2018-05-29T03:42:15.134Z,21.63
2018-05-29T03:44:43.945Z,24.37
2018-05-29T03:47:12.781Z,20.00
2018-05-29T03:49:41.601Z,20.63
2018-05-29T03:52:10.409Z,21.03
2018-05-29T03:54:39.353Z,18.77
2018-05-29T03:57:08.933Z,18.57
2018-05-29T03:59:37.739Z,21.17
2018-05-29T04:02:06.556Z,24.50
2018-05-29T04:04:35.359Z,23.60
2018-05-29T04:07:05.797Z,19.83
2018-05-29T04:09:34.704Z,22.00
2018-05-29T04:12:03.612Z,23.53
2018-05-29T04:14:32.431Z,21.40
2018-05-29T04:17:01.389Z,24.47
2018-05-29T04:19:30.967Z,22.03
2018-05-29T04:22:00.949Z,24.33
2018-05-29T04:24:29.765Z,21.47
2018-05-29T04:26:58.567Z,26.83
2018-05-29T04:29:27.422Z,23.97
2018-05-29T04:31:56.229Z,19.53
2018-05-29T04:34:25.045Z,20.07
2018-05-29T04:36:53.848Z,21.97
2018-05-29T04:39:22.683Z,19.53
2018-05-29T04:41:52.279Z,17.57
2018-05-29T04:44:21.097Z,17.03
2018-05-29T04:46:49.906Z,15.33
2018-05-29T04:49:18.714Z,16.73
2018-05-29T04:51:48.394Z,14.60
2018-05-29T04:54:17.203Z,15.97
2018-05-29T04:56:46.034Z,16.93
2018-05-29T04:59:15.786Z,17.57
2018-05-29T05:01:45.302Z,15.13
2018-05-29T05:04:14.222Z,17.10
2018-05-29T05:06:43.801Z,16.27
2018-05-29T05:09:12.731Z,18.90
2018-05-29T05:11:42.307Z,17.00
2018-05-29T05:14:11.135Z,18.57
2018-05-29T05:16:40.032Z,15.03
2018-05-29T05:19:08.930Z,14.33
2018-05-29T05:21:38.523Z,15.63
2018-05-29T05:24:08.044Z,12.70
2018-05-29T05:26:36.847Z,14.03
2018-05-29T05:29:06.430Z,14.47
2018-05-29T05:31:35.226Z,13.00
2018-05-29T05:34:04.038Z,14.17
2018-05-29T05:36:32.865Z,14.80
2018-05-29T05:39:01.671Z,17.67
2018-05-29T05:41:30.495Z,13.20
2018-05-29T05:43:59.445Z,11.97
2018-05-29T05:46:29.028Z,10.47
2018-05-29T05:48:57.851Z,10.17
2018-05-29T05:51:27.408Z,10.30
2018-05-29T05:53:56.982Z,9.17
2018-05-29T05:56:25.806Z,9.23
2018-05-29T05:58:54.682Z,8.90
2018-05-29T06:01:23.582Z,7.13
2018-05-29T06:03:53.704Z,7.63
2018-05-29T06:06:22.567Z,7.80
2018-05-29T06:08:51.356Z,7.57
2018-05-29T06:11:20.942Z,6.13
2018-05-29T06:13:49.766Z,5.80
2018-05-29T06:16:18.640Z,6.13
2018-05-29T06:18:47.533Z,6.27
2018-05-29T06:21:16.331Z,6.47
2018-05-29T06:23:45.875Z,6.97
2018-05-29T06:26:14.816Z,6.93
2018-05-29T06:28:44.384Z,5.20
2018-05-29T06:31:13.199Z,6.40
2018-05-29T06:33:42.761Z,4.80
2018-05-29T06:36:11.544Z,5.20
2018-05-29T06:38:40.427Z,4.37
2018-05-29T06:41:09.197Z,4.70
2018-05-29T06:43:38.006Z,4.53
2018-05-29T06:46:06.853Z,6.03
2018-05-29T06:48:36.416Z,5.70
2018-05-29T06:51:05.220Z,5.37
2018-05-29T06:53:34.020Z,6.87
2018-05-29T06:56:02.838Z,5.00
2018-05-29T06:58:31.754Z,4.70
2018-05-29T07:01:00.640Z,4.33
2018-05-29T07:03:29.440Z,3.90
2018-05-29T07:05:58.248Z,4.93
2018-05-29T07:08:27.068Z,6.13
2018-05-29T07:10:56.662Z,5.43
2018-05-29T07:13:25.939Z,5.93
2018-05-29T07:15:55.556Z,12.93
2018-05-29T07:18:24.353Z,7.63
2018-05-29T07:20:53.167Z,8.13
2018-05-29T07:23:21.953Z,5.87
2018-05-29T07:25:51.570Z,5.40
2018-05-29T07:28:20.480Z,4.60
2018-05-29T07:30:50.116Z,3.70
2018-05-29T07:33:18.916Z,3.17
2018-05-29T07:35:47.742Z,3.63
2018-05-29T07:38:16.563Z,2.73
2018-05-29T07:40:45.407Z,2.80
2018-05-29T07:43:14.961Z,2.30
2018-05-29T07:45:43.779Z,2.43
2018-05-29T07:48:12.583Z,2.40
2018-05-29T07:50:42.163Z,2.17
2018-05-29T07:53:10.951Z,2.53
2018-05-29T07:55:40.521Z,2.03
2018-05-29T07:58:09.318Z,1.70
2018-05-29T08:00:38.127Z,1.70
2018-05-29T08:03:07.729Z,1.63
2018-05-29T08:05:37.307Z,1.70
2018-05-29T08:08:06.089Z,1.63
2018-05-29T08:10:34.916Z,1.90
2018-05-29T08:13:03.689Z,1.50
2018-05-29T08:15:32.502Z,1.40
2018-05-29T08:18:01.303Z,2.33
2018-05-29T08:20:30.853Z,2.27
2018-05-29T08:22:59.715Z,3.07
2018-05-29T08:25:28.538Z,2.40
2018-05-29T08:27:57.342Z,4.80
2018-05-29T08:30:26.932Z,4.47
2018-05-29T08:32:55.847Z,3.67
2018-05-29T08:35:24.627Z,5.77
2018-05-29T08:37:53.451Z,3.67
2018-05-29T08:40:22.319Z,3.63
2018-05-29T08:42:51.881Z,3.40
2018-05-29T08:45:20.679Z,3.03
2018-05-29T08:47:49.481Z,3.80
2018-05-29T08:50:19.051Z,3.67
2018-05-29T08:52:47.867Z,5.97
2018-05-29T08:55:16.667Z,5.30
2018-05-29T08:57:45.482Z,5.13
2018-05-29T09:00:14.273Z,8.47
2018-05-29T09:02:43.683Z,5.97
2018-05-29T09:05:12.503Z,5.50
2018-05-29T09:07:41.359Z,4.83
2018-05-29T09:10:11.030Z,4.90
2018-05-29T09:12:40.574Z,4.03
2018-05-29T09:15:09.387Z,4.13
2018-05-29T09:17:38.951Z,3.73
2018-05-29T09:20:07.789Z,3.77
2018-05-29T09:22:37.341Z,4.53
2018-05-29T09:25:06.167Z,9.17
2018-05-29T09:27:35.774Z,5.73
2018-05-29T09:30:04.595Z,7.10
2018-05-29T09:32:34.150Z,6.43
2018-05-29T09:35:02.975Z,5.77
2018-05-29T09:37:31.846Z,4.67
2018-05-29T09:40:01.386Z,4.93
2018-05-29T09:42:30.315Z,6.90
2018-05-29T09:44:59.869Z,7.00
2018-05-29T09:47:28.689Z,5.50
2018-05-29T09:49:58.270Z,7.53
2018-05-29T09:52:27.069Z,8.73
2018-05-29T09:54:55.860Z,7.03
2018-05-29T09:57:24.679Z,10.37
2018-05-29T09:59:54.236Z,9.77
2018-05-29T10:02:23.030Z,8.57
2018-05-29T10:04:52.604Z,6.77
2018-05-29T10:07:21.425Z,7.80
2018-05-29T10:09:50.230Z,7.00
2018-05-29T10:12:19.922Z,7.70
2018-05-29T10:14:48.720Z,8.07
2018-05-29T10:17:17.900Z,6.80
2018-05-29T10:19:46.778Z,6.40
2018-05-29T10:22:16.393Z,5.97
2018-05-29T10:24:45.976Z,5.43
2018-05-29T10:27:14.765Z,5.53
2018-05-29T10:29:44.941Z,7.07
2018-05-29T10:32:13.732Z,6.43
2018-05-29T10:34:42.564Z,6.50
2018-05-29T10:37:11.396Z,6.27
2018-05-29T10:39:40.980Z,5.00
2018-05-29T10:42:09.793Z,6.40
2018-05-29T10:44:38.577Z,5.50
2018-05-29T10:47:07.370Z,5.43
2018-05-29T10:49:36.168Z,4.80
2018-05-29T10:52:04.990Z,5.23
2018-05-29T10:54:33.786Z,5.63
2018-05-29T10:57:02.636Z,4.90
2018-05-29T10:59:31.463Z,5.10
2018-05-29T11:02:00.334Z,3.90
2018-05-29T11:04:29.921Z,3.77
2018-05-29T11:06:58.792Z,4.97
2018-05-29T11:09:28.285Z,3.97
2018-05-29T11:11:57.108Z,6.47
2018-05-29T11:14:26.027Z,6.93
2018-05-29T11:16:55.697Z,6.93
2018-05-29T11:19:24.520Z,6.20
2018-05-29T11:21:54.091Z,5.73
2018-05-29T11:24:22.923Z,5.27
2018-05-29T11:26:52.495Z,4.30
2018-05-29T11:29:21.290Z,5.47
2018-05-29T11:31:50.090Z,6.73
2018-05-29T11:34:18.911Z,5.87
2018-05-29T11:36:47.829Z,6.03
2018-05-29T11:39:17.427Z,5.50
2018-05-29T11:41:46.255Z,5.60
2018-05-29T11:44:15.125Z,5.43
2018-05-29T11:46:44.689Z,5.10
2018-05-29T11:49:13.503Z,4.83
2018-05-29T11:51:43.090Z,5.50
2018-05-29T11:54:11.929Z,6.77
2018-05-29T11:56:41.498Z,5.93
2018-05-29T11:59:11.329Z,5.47
2018-05-29T12:01:40.164Z,4.57
2018-05-29T12:04:08.977Z,5.40
2018-05-29T12:06:38.579Z,5.30
2018-05-29T12:09:08.175Z,4.27
2018-05-29T12:11:36.982Z,5.37
2018-05-29T12:14:05.865Z,4.70
2018-05-29T12:16:34.665Z,4.23
2018-05-29T12:19:04.223Z,6.00
2018-05-29T12:21:33.017Z,5.53
2018-05-29T12:24:01.837Z,7.70
2018-05-29T12:26:30.719Z,6.37
2018-05-29T12:29:00.296Z,6.17
2018-05-29T12:31:29.111Z,6.20
2018-05-29T12:33:57.927Z,5.00
2018-05-29T12:36:27.503Z,5.33
2018-05-29T12:38:56.292Z,4.23
2018-05-29T12:41:25.123Z,3.90
2018-05-29T12:43:54.677Z,6.60
2018-05-29T12:46:23.576Z,7.23
2018-05-29T12:48:52.358Z,7.00
2018-05-29T12:51:21.201Z,7.03
2018-05-29T12:53:50.004Z,7.47
2018-05-29T12:56:19.583Z,5.07
2018-05-29T12:58:48.380Z,4.13
2018-05-29T13:01:17.194Z,3.97
2018-05-29T13:03:49.455Z,4.93
2018-05-29T13:06:18.259Z,6.33
2018-05-29T13:08:47.824Z,5.23
2018-05-29T13:11:16.638Z,5.90
2018-05-29T13:13:49.068Z,4.17
2018-05-29T13:16:17.901Z,3.43
2018-05-29T13:18:46.711Z,4.17
2018-05-29T13:21:15.503Z,3.17
2018-05-29T13:23:44.356Z,5.80
2018-05-29T13:26:13.160Z,8.50
2018-05-29T13:28:42.718Z,6.47
2018-05-29T13:33:48.288Z,6.27
2018-05-29T13:36:17.962Z,7.77
2018-05-29T13:38:47.570Z,4.70
2018-05-29T13:41:17.132Z,8.17
2018-05-29T13:43:45.936Z,4.50
2018-05-29T13:46:15.514Z,5.57
2018-05-29T13:48:44.319Z,4.50
2018-05-29T13:51:13.947Z,4.00
2018-05-29T13:53:49.447Z,3.77
2018-05-29T13:56:18.331Z,2.83
2018-05-29T13:58:47.894Z,2.50
2018-05-29T14:01:16.706Z,3.17
2018-05-29T14:03:46.040Z,3.13
2018-05-29T14:06:14.861Z,3.33
2018-05-29T14:08:43.646Z,3.60
2018-05-29T14:11:12.464Z,6.93
2018-05-29T14:13:41.242Z,4.10
2018-05-29T14:16:10.076Z,5.70
2018-05-29T14:18:38.866Z,7.20
2018-05-29T14:21:07.780Z,4.60
2018-05-29T14:23:37.620Z,6.33
2018-05-29T14:26:07.204Z,3.57
2018-05-29T14:28:36.128Z,3.27
2018-05-29T14:31:05.704Z,3.13
2018-05-29T14:33:35.286Z,3.50
2018-05-29T14:36:04.129Z,3.40
2018-05-29T14:38:33.747Z,9.63
2018-05-29T14:41:03.302Z,8.03
2018-05-29T14:43:32.158Z,10.23
2018-05-29T14:46:01.750Z,5.53
2018-05-29T14:48:30.653Z,6.60
2018-05-29T14:50:59.467Z,5.47
2018-05-29T14:53:28.278Z,5.10
2018-05-29T14:55:57.110Z,5.50
2018-05-29T14:58:25.950Z,11.63
2018-05-29T15:00:54.760Z,7.70
2018-05-29T15:03:24.566Z,10.47
2018-05-29T15:05:53.396Z,8.17
2018-05-29T15:08:22.243Z,5.40
2018-05-29T15:10:51.042Z,11.00
2018-05-29T15:13:20.370Z,4.93
2018-05-29T15:15:49.206Z,4.13
2018-05-29T15:18:18.787Z,3.73
2018-05-29T15:20:47.604Z,5.73
2018-05-29T15:23:16.395Z,10.63
2018-05-29T15:25:45.229Z,10.70
2018-05-29T15:28:14.840Z,7.87
2018-05-29T15:30:44.453Z,11.73
2018-05-29T15:33:14.017Z,6.73
2018-05-29T15:35:43.829Z,5.67
2018-05-29T15:38:12.673Z,6.20
2018-05-29T15:40:41.529Z,4.47
2018-05-29T15:43:10.327Z,3.87
2018-05-29T15:45:39.183Z,3.60
2018-05-29T15:48:07.962Z,2.83
2018-05-29T15:50:36.776Z,4.30
2018-05-29T15:53:05.608Z,2.90
2018-05-29T15:55:34.401Z,2.60
2018-05-29T15:58:03.207Z,8.67
2018-05-29T16:00:32.021Z,7.60
2018-05-29T16:03:00.821Z,5.13
2018-05-29T16:05:29.649Z,10.47
2018-05-29T16:07:58.485Z,5.27
2018-05-29T16:10:27.408Z,4.23
2018-05-29T16:12:56.977Z,3.60
2018-05-29T16:15:25.877Z,3.90
2018-05-29T16:17:56.196Z,2.90
2018-05-29T16:20:25.011Z,2.37
2018-05-29T16:22:53.853Z,2.20
2018-05-29T16:25:23.423Z,2.10
2018-05-29T16:27:52.315Z,4.83
2018-05-29T16:30:21.127Z,3.70
2018-05-29T16:32:50.715Z,5.27
2018-05-29T16:35:19.624Z,4.00
2018-05-29T16:37:49.209Z,4.27
2018-05-29T16:40:17.998Z,3.40
2018-05-29T16:42:46.799Z,3.27
2018-05-29T16:45:15.708Z,10.77
2018-05-29T16:47:45.308Z,7.67
2018-05-29T16:50:15.656Z,10.70
2018-05-29T16:52:45.220Z,10.10
2018-05-29T16:55:14.056Z,9.77
2018-05-29T16:57:42.882Z,13.03
2018-05-29T17:00:11.689Z,5.50
2018-05-29T17:02:40.482Z,8.97
2018-05-29T17:05:09.315Z,13.50
2018-05-29T17:07:38.890Z,9.70
2018-05-29T17:10:07.698Z,11.13
2018-05-29T17:12:38.160Z,9.90
2018-05-29T17:15:07.803Z,15.07
2018-05-29T17:17:37.370Z,12.13
2018-05-29T17:20:07.106Z,9.67
2018-05-29T17:22:35.959Z,10.30
2018-05-29T17:25:04.760Z,12.87
2018-05-29T17:27:34.360Z,12.93
2018-05-29T17:30:03.285Z,11.97
2018-05-29T17:32:32.872Z,12.33
2018-05-29T17:35:01.700Z,14.07
2018-05-29T17:37:31.302Z,13.30
2018-05-29T17:40:00.865Z,23.23
2018-05-29T17:42:29.682Z,12.83
2018-05-29T17:44:58.552Z,13.53
2018-05-29T17:47:28.087Z,11.33
2018-05-29T17:50:05.391Z,12.60
2018-05-29T17:52:34.261Z,16.87
2018-05-29T17:55:03.077Z,22.37
2018-05-29T17:57:31.910Z,15.27
2018-05-29T18:00:01.499Z,15.07
2018-05-29T18:02:31.125Z,12.27
2018-05-29T18:05:00.689Z,17.80
2018-05-29T18:07:29.509Z,16.53
2018-05-29T18:09:59.127Z,11.83
2018-05-29T18:12:28.715Z,10.73
2018-05-29T18:14:57.594Z,12.00
2018-05-29T18:17:27.143Z,13.27
2018-05-29T18:20:05.941Z,17.10
2018-05-29T18:22:34.756Z,13.63
2018-05-29T18:25:04.354Z,13.70
2018-05-29T18:27:33.246Z,21.73
2018-05-29T18:30:02.150Z,16.20
2018-05-29T18:32:31.861Z,16.57
2018-05-29T18:35:01.452Z,15.90
2018-05-29T18:37:31.003Z,11.40
2018-05-29T18:39:59.840Z,10.60
2018-05-29T18:42:28.648Z,11.63
2018-05-29T18:44:57.504Z,9.73
2018-05-29T18:47:27.090Z,12.43
2018-05-29T18:49:55.976Z,9.77
2018-05-29T18:52:24.731Z,11.20
2018-05-29T18:54:53.579Z,7.67
2018-05-29T18:57:22.383Z,8.10
2018-05-29T18:59:51.947Z,9.83
2018-05-29T19:02:20.876Z,10.40
2018-05-29T19:04:49.661Z,13.90
2018-05-29T19:07:18.457Z,11.83
2018-05-29T19:09:47.316Z,14.87
2018-05-29T19:12:16.888Z,10.57
2018-05-29T19:14:46.974Z,11.97
2018-05-29T19:17:15.831Z,8.97
2018-05-29T19:22:24.329Z,10.93
2018-05-29T19:24:53.152Z,9.97
2018-05-29T19:27:21.973Z,8.53
2018-05-29T19:29:51.593Z,11.50
2018-05-29T19:32:21.155Z,13.67
2018-05-29T19:34:49.989Z,18.77
2018-05-29T19:37:18.872Z,12.47
2018-05-29T19:39:48.445Z,15.70
2018-05-29T19:42:18.071Z,14.10
2018-05-29T19:44:47.669Z,9.73
2018-05-29T19:47:16.470Z,11.03
2018-05-29T19:49:45.291Z,11.70
2018-05-29T19:52:14.128Z,15.80
2018-05-29T19:54:42.951Z,14.53
2018-05-29T19:57:11.775Z,18.37
2018-05-29T19:59:41.340Z,15.97
2018-05-29T20:02:10.931Z,16.97
2018-05-29T20:04:40.550Z,15.53
2018-05-29T20:07:10.102Z,11.57
2018-05-29T20:09:39.046Z,10.40
2018-05-29T20:12:08.653Z,10.67
2018-05-29T20:14:37.460Z,14.63
2018-05-29T20:17:06.281Z,11.10
2018-05-29T20:19:35.847Z,11.53
2018-05-29T20:22:04.670Z,14.30
2018-05-29T20:24:33.530Z,15.17
2018-05-29T20:27:02.335Z,9.10
2018-05-29T20:29:31.152Z,9.57
2018-05-29T20:32:00.025Z,9.27
2018-05-29T20:34:28.920Z,10.10
2018-05-29T20:36:57.768Z,7.87
2018-05-29T20:39:27.322Z,9.77
2018-05-29T20:41:56.208Z,9.43
2018-05-29T20:44:25.806Z,9.20
2018-05-29T20:46:55.391Z,9.73
2018-05-29T20:49:24.188Z,9.77
2018-05-29T20:51:53.032Z,9.17
2018-05-29T20:54:21.896Z,7.70
2018-05-29T20:56:50.704Z,8.50
2018-05-29T20:59:19.532Z,11.30
2018-05-29T21:01:48.438Z,8.40
2018-05-29T21:04:17.980Z,8.83
2018-05-29T21:06:46.820Z,8.80
2018-05-29T21:09:15.658Z,8.87
2018-05-29T21:11:45.712Z,8.37
2018-05-29T21:14:15.274Z,9.53
2018-05-29T21:16:44.102Z,7.77
2018-05-29T21:19:12.922Z,6.57
2018-05-29T21:21:42.482Z,11.40
2018-05-29T21:24:12.105Z,7.77
2018-05-29T21:26:41.674Z,8.83
2018-05-29T21:29:10.574Z,8.60
2018-05-29T21:31:39.392Z,8.43
2018-05-29T21:34:08.197Z,8.07
2018-05-29T21:36:37.007Z,8.90
2018-05-29T21:39:06.618Z,9.10
2018-05-29T21:41:36.219Z,12.10
2018-05-29T21:44:05.790Z,11.87
2018-05-29T21:46:34.599Z,12.53
2018-05-29T21:49:04.193Z,11.80
2018-05-29T21:51:33.104Z,15.17
2018-05-29T21:54:01.965Z,15.00
2018-05-29T21:56:33.120Z,11.27
2018-05-29T21:59:01.935Z,14.83
2018-05-29T22:01:30.789Z,11.83
2018-05-29T22:04:03.607Z,12.67
2018-05-29T22:06:33.301Z,13.23
2018-05-29T22:09:02.868Z,11.43
2018-05-29T22:11:31.724Z,10.73
2018-05-29T22:14:00.516Z,8.80
2018-05-29T22:16:29.362Z,11.30
2018-05-29T22:18:58.594Z,10.37
2018-05-29T22:21:27.392Z,12.13
2018-05-29T22:23:56.203Z,13.30
2018-05-29T22:26:25.027Z,11.37
2018-05-29T22:28:54.717Z,11.17
2018-05-29T22:31:24.356Z,14.90
2018-05-29T22:33:53.192Z,9.70
2018-05-29T22:36:21.978Z,9.97
2018-05-29T22:38:50.774Z,9.50
2018-05-29T22:41:19.593Z,14.30
2018-05-29T22:43:48.444Z,10.40
2018-05-29T22:46:18.020Z,10.63
2018-05-29T22:48:46.854Z,9.10
2018-05-29T22:51:16.419Z,9.60
2018-05-29T22:53:46.012Z,9.37
2018-05-29T22:56:14.861Z,9.97
2018-05-29T22:58:44.439Z,9.93
2018-05-29T23:01:13.248Z,11.30
2018-05-29T23:03:42.310Z,11.13
2018-05-29T23:06:11.124Z,8.50
2018-05-29T23:08:39.934Z,9.50
2018-05-29T23:11:09.493Z,9.30
2018-05-29T23:13:38.692Z,8.77
2018-05-29T23:16:08.300Z,9.20
2018-05-29T23:18:37.891Z,9.97
2018-05-29T23:21:06.722Z,9.20
2018-05-29T23:23:35.535Z,9.87
2018-05-29T23:26:04.345Z,8.57
2018-05-29T23:28:33.126Z,9.27
2018-05-29T23:31:01.937Z,12.17
2018-05-29T23:33:46.360Z,10.87
2018-05-29T23:36:15.235Z,11.63
2018-05-29T23:38:44.843Z,14.27
2018-05-29T23:41:14.396Z,11.03
2018-05-29T23:43:44.098Z,11.13
2018-05-29T23:46:12.957Z,13.33
2018-05-29T23:48:41.791Z,12.03
2018-05-29T23:51:10.640Z,12.70
2018-05-29T23:53:40.970Z,9.03
2018-05-29T23:56:10.524Z,9.50
2018-05-29T23:58:40.202Z,13.17
